Pagina principale
METAR-TAF:

METAR-TAF

Aeroporti :

Verona, Italia

Aeroporto di Verona-Villafranca

latitudine: 45-23N, longitudine: 010-52E, altezza: 67 m

Osservazione

Il bollettino è stato emesso 18 minuti fa, alle 13:20 UTC
Vento 9 kt da ovest
Temperature 16°C
Umidità 63%
Pressione 1011 hPa
Visibilità 10 km o più
Nubi sparse ad un'altezza di 1000 ft
Nuvoloso ad un'altezza di 7000 ft

METAR: LIPX 191320Z 26009KT 9999 SCT010 BKN070 16/09 Q1011

Ora: 15:38 (13:38 UTC)

Previsione

Il bollettino è stato emesso 2 ore e 38 minuti fa, alle 11:00 UTC
Previsione valida dal 19 alle 12 UTC al 19 alle 21 UTC
Vento 5 kt da direzioni variabili
Visibilità 10 km o più
Nubi sparse ad un'altezza di 2500 ft
Nuvoloso ad un'altezza di 7000 ft
Probabilità 40% :
Temporaneamente
dal 19 alle 12 UTC al 19 alle 17 UTC
Visibilità: 4000 m
temporale, pioggia

TAF: LIPX 191100Z 1912/1921 VRB05KT 9999 SCT025 BKN070 PROB40 TEMPO 1912/1917 4000 TSRA

Osservazioni e previsioni meteorologiche di più di 4000 aeroporti (messaggi METAR e TAF).

Le stazioni disponibili sono rappresentate dai dischi gialli e rossi sulla carta.

Puntare il mouse per vedere il nome della stazione.

Clicca sopra per visualizzare le osservazioni e previsioni meteorologiche.

Per cambiare la mappa : fare clic sui pulsanti verdi con una croce nera per ingrandire, il pulsante verde con un trattino per diminuire, o sulla freccia verde per le mappe adiacenti.


METAR-TAF: